createdAt,value
2019-04-23T00:02:14.257Z,3.50
2019-04-23T00:05:02.469Z,10.27
2019-04-23T00:10:33.215Z,6.10
2019-04-23T00:13:30.348Z,4.97
2019-04-23T00:18:56.082Z,3.73
2019-04-23T00:22:05.471Z,4.23
2019-04-23T00:27:50.123Z,6.03
2019-04-23T00:30:43.997Z,4.90
2019-04-23T00:33:25.571Z,5.43
2019-04-23T00:36:12.363Z,6.50
2019-04-23T00:38:55.826Z,7.93
2019-04-23T00:42:10.337Z,6.57
2019-04-23T00:44:45.935Z,8.27
2019-04-23T00:47:32.980Z,7.37
2019-04-23T00:50:24.046Z,5.33
2019-04-23T00:53:05.886Z,8.63
2019-04-23T00:56:04.139Z,4.20
2019-04-23T00:58:55.239Z,5.63
2019-04-23T01:01:41.210Z,7.10
2019-04-23T01:04:19.001Z,5.60
2019-04-23T01:07:07.565Z,6.30
2019-04-23T01:10:08.782Z,8.67
2019-04-23T01:12:51.659Z,4.70
2019-04-23T01:15:41.097Z,4.90
2019-04-23T01:18:45.910Z,7.07
2019-04-23T01:21:01.543Z,5.57
2019-04-23T01:24:14.118Z,4.90
2019-04-23T01:27:46.113Z,5.30
2019-04-23T01:30:19.859Z,5.83
2019-04-23T01:33:10.863Z,6.10
2019-04-23T01:36:16.249Z,6.20
2019-04-23T01:38:55.967Z,6.70
2019-04-23T01:41:50.791Z,6.17
2019-04-23T01:44:38.662Z,8.07
2019-04-23T01:47:19.979Z,9.90
2019-04-23T01:53:00.805Z,7.37
2019-04-23T01:55:49.794Z,6.63
2019-04-23T01:58:41.054Z,7.67
2019-04-23T02:01:19.164Z,9.70
2019-04-23T02:06:59.287Z,9.17
2019-04-23T02:09:52.796Z,7.60
2019-04-23T02:12:34.454Z,13.07
2019-04-23T02:15:26.547Z,7.83
2019-04-23T02:18:13.694Z,7.07
2019-04-23T02:20:59.572Z,11.27
2019-04-23T02:23:57.081Z,9.33
2019-04-23T02:27:05.260Z,8.37
2019-04-23T02:29:51.276Z,9.37
2019-04-23T02:32:29.641Z,8.57
2019-04-23T02:38:10.245Z,8.50
2019-04-23T02:41:04.706Z,9.80
2019-04-23T02:43:40.366Z,9.37
2019-04-23T02:46:20.963Z,8.63
2019-04-23T02:52:12.578Z,8.67
2019-04-23T02:57:47.648Z,8.67
2019-04-23T03:03:25.165Z,11.87
2019-04-23T03:09:00.457Z,9.10
2019-04-23T03:11:52.225Z,9.97
2019-04-23T03:14:56.061Z,9.07
2019-04-23T03:17:36.576Z,11.80
2019-04-23T03:23:25.129Z,8.53
2019-04-23T03:29:19.955Z,8.63
2019-04-23T03:40:21.480Z,11.70
2019-04-23T03:48:41.931Z,10.43
2019-04-23T03:51:26.069Z,12.27
2019-04-23T03:54:26.306Z,10.23
2019-04-23T03:57:13.365Z,11.60
2019-04-23T04:05:36.052Z,11.40
2019-04-23T04:08:17.969Z,12.17
2019-04-23T04:11:10.830Z,11.37
2019-04-23T04:14:01.140Z,11.77
2019-04-23T04:16:51.628Z,11.23
2019-04-23T04:28:03.575Z,12.47
2019-04-23T04:30:54.397Z,13.33
2019-04-23T04:39:08.063Z,12.17
2019-04-23T04:41:56.947Z,12.17
2019-04-23T04:50:15.418Z,12.27
2019-04-23T04:53:22.838Z,12.07
2019-04-23T04:56:07.628Z,13.53
2019-04-23T04:58:54.049Z,12.83
2019-04-23T05:01:29.590Z,13.13
2019-04-23T05:04:33.132Z,14.57
2019-04-23T05:12:46.857Z,13.53
2019-04-23T05:15:37.319Z,12.73
2019-04-23T05:21:20.393Z,12.80
2019-04-23T05:24:06.791Z,14.53
2019-04-23T05:26:38.753Z,13.93
2019-04-23T05:29:41.435Z,14.47
2019-04-23T05:32:29.081Z,15.33
2019-04-23T05:35:20.328Z,13.00
2019-04-23T05:41:03.972Z,13.27
2019-04-23T05:43:40.841Z,14.83
2019-04-23T05:46:37.702Z,12.87
2019-04-23T05:49:11.064Z,14.00
2019-04-23T05:52:04.028Z,13.87
2019-04-23T05:54:56.315Z,13.40
2019-04-23T05:57:39.166Z,21.47
2019-04-23T06:00:34.743Z,14.53
2019-04-23T06:03:16.283Z,12.97
2019-04-23T06:06:12.657Z,13.73
2019-04-23T06:08:53.151Z,13.73
2019-04-23T06:11:56.980Z,12.47
2019-04-23T06:14:30.791Z,13.13
2019-04-23T06:17:15.259Z,23.10
2019-04-23T06:28:29.838Z,12.53
2019-04-23T06:34:12.518Z,13.30
2019-04-23T06:36:55.527Z,16.93
2019-04-23T06:39:41.506Z,11.97
2019-04-23T06:42:30.747Z,15.17
2019-04-23T06:45:19.309Z,13.83
2019-04-23T06:48:10.622Z,12.63
2019-04-23T06:51:07.854Z,16.03
2019-04-23T06:53:43.131Z,12.00
2019-04-23T06:56:37.507Z,11.30
2019-04-23T07:02:13.552Z,11.53
2019-04-23T07:10:40.301Z,11.33
2019-04-23T07:13:21.189Z,12.80
2019-04-23T07:16:10.987Z,13.20
2019-04-23T07:19:04.627Z,11.47
2019-04-23T07:21:50.823Z,12.93
2019-04-23T07:24:39.809Z,12.43
2019-04-23T07:27:37.848Z,11.57
2019-04-23T07:30:13.645Z,10.63
2019-04-23T07:32:58.715Z,10.90
2019-04-23T07:35:52.238Z,11.37
2019-04-23T07:39:02.588Z,12.93
2019-04-23T07:45:24.049Z,11.30
2019-04-23T07:48:19.214Z,11.20
2019-04-23T07:51:20.946Z,11.10
2019-04-23T07:53:53.452Z,11.70
2019-04-23T07:56:43.062Z,10.63
2019-04-23T07:59:37.188Z,11.90
2019-04-23T08:02:21.950Z,12.00
2019-04-23T08:05:25.173Z,11.50
2019-04-23T08:07:58.820Z,12.27
2019-04-23T08:10:56.853Z,11.80
2019-04-23T08:13:39.857Z,11.93
2019-04-23T08:16:28.190Z,12.67
2019-04-23T08:19:25.308Z,12.37
2019-04-23T08:21:58.339Z,12.60
2019-04-23T08:25:26.439Z,12.90
2019-04-23T08:28:09.750Z,12.93
2019-04-23T08:30:46.525Z,12.30
2019-04-23T08:33:40.153Z,12.67
2019-04-23T08:36:27.295Z,12.23
2019-04-23T08:39:18.273Z,15.47
2019-04-23T08:42:21.674Z,10.77
2019-04-23T08:45:28.716Z,12.33
2019-04-23T08:48:18.211Z,13.03
2019-04-23T08:50:54.651Z,12.23
2019-04-23T08:53:40.975Z,13.33
2019-04-23T08:56:40.671Z,12.77
2019-04-23T08:59:36.847Z,15.77
2019-04-23T09:05:00.025Z,17.17
2019-04-23T09:07:54.118Z,22.83
2019-04-23T09:10:37.459Z,17.67
2019-04-23T09:16:08.873Z,13.60
2019-04-23T09:19:03.937Z,13.60
2019-04-23T09:21:59.200Z,13.73
2019-04-23T09:24:44.810Z,14.50
2019-04-23T09:27:28.855Z,11.70
2019-04-23T09:30:14.757Z,12.30
2019-04-23T09:33:26.341Z,13.30
2019-04-23T09:36:18.431Z,12.40
2019-04-23T09:39:12.906Z,13.50
2019-04-23T09:42:04.441Z,12.73
2019-04-23T09:45:18.884Z,12.07
2019-04-23T09:48:04.370Z,14.60
2019-04-23T09:50:54.796Z,13.03
2019-04-23T09:53:41.164Z,13.33
2019-04-23T09:56:37.768Z,12.43
2019-04-23T10:02:01.549Z,16.20
2019-04-23T10:04:48.731Z,13.27
2019-04-23T10:07:30.010Z,14.00
2019-04-23T10:10:08.280Z,14.07
2019-04-23T10:12:55.762Z,16.00
2019-04-23T10:15:45.796Z,12.57
2019-04-23T10:18:31.012Z,12.63
2019-04-23T10:21:19.366Z,14.67
2019-04-23T10:24:07.505Z,12.53
2019-04-23T10:26:53.981Z,12.33
2019-04-23T10:29:41.720Z,12.70
2019-04-23T10:32:29.755Z,14.83
2019-04-23T10:35:27.330Z,17.17
2019-04-23T10:38:10.367Z,15.70
2019-04-23T10:40:54.152Z,13.80
2019-04-23T10:43:44.568Z,13.30
2019-04-23T10:47:17.780Z,12.20
2019-04-23T10:50:26.050Z,12.67
2019-04-23T10:53:26.604Z,13.03
2019-04-23T10:56:10.140Z,12.13
2019-04-23T10:58:54.994Z,13.20
2019-04-23T11:01:43.464Z,11.80
2019-04-23T11:10:08.671Z,15.43
2019-04-23T11:13:09.300Z,12.33
2019-04-23T11:16:21.600Z,15.17
2019-04-23T11:18:53.573Z,11.57
2019-04-23T11:21:34.150Z,14.53
2019-04-23T11:24:33.915Z,15.40
2019-04-23T11:27:10.134Z,16.50
2019-04-23T11:30:01.808Z,15.37
2019-04-23T11:32:56.758Z,16.83
2019-04-23T11:35:39.942Z,12.73
2019-04-23T11:38:44.500Z,18.17
2019-04-23T11:41:09.656Z,11.83
2019-04-23T11:43:58.343Z,12.70
2019-04-23T11:50:56.017Z,14.00
2019-04-23T11:52:30.083Z,13.13
2019-04-23T11:55:17.676Z,12.50
2019-04-23T11:58:08.746Z,12.60
2019-04-23T12:01:24.455Z,10.30
2019-04-23T12:07:21.378Z,11.07
2019-04-23T12:10:31.665Z,11.73
2019-04-23T12:13:20.851Z,11.63
2019-04-23T12:16:00.577Z,12.20
2019-04-23T12:24:53.311Z,12.13
2019-04-23T12:27:30.554Z,10.07
2019-04-23T12:30:01.547Z,14.00
2019-04-23T12:32:57.206Z,11.10
2019-04-23T12:35:32.531Z,11.83
2019-04-23T12:38:25.493Z,10.77
2019-04-23T12:41:24.509Z,10.60
2019-04-23T12:44:10.935Z,12.93
2019-04-23T12:46:57.496Z,14.17
2019-04-23T12:50:13.678Z,12.23
2019-04-23T12:52:36.445Z,14.73
2019-04-23T12:55:23.419Z,11.27
2019-04-23T13:00:46.032Z,11.07
2019-04-23T13:03:41.547Z,11.43
2019-04-23T13:06:27.634Z,10.43
2019-04-23T13:09:33.142Z,11.40
2019-04-23T13:12:17.297Z,10.67
2019-04-23T13:14:57.356Z,12.97
2019-04-23T13:20:32.245Z,11.63
2019-04-23T13:23:22.095Z,11.33
2019-04-23T13:26:04.258Z,11.50
2019-04-23T13:29:07.619Z,11.60
2019-04-23T13:31:49.918Z,12.90
2019-04-23T13:37:38.652Z,9.50
2019-04-23T13:40:17.867Z,9.93
2019-04-23T13:48:36.599Z,9.10
2019-04-23T13:54:29.861Z,9.07
2019-04-23T13:59:56.238Z,8.53
2019-04-23T14:05:49.490Z,8.50
2019-04-23T14:14:25.476Z,10.97
2019-04-23T14:17:17.492Z,11.93
2019-04-23T14:20:03.822Z,25.40
2019-04-23T14:23:08.257Z,14.90
2019-04-23T14:25:45.393Z,19.50
2019-04-23T14:36:55.639Z,10.40
2019-04-23T14:39:32.027Z,9.80
2019-04-23T14:42:33.371Z,10.00
2019-04-23T14:45:45.176Z,8.70
2019-04-23T14:51:02.527Z,9.63
2019-04-23T14:53:41.031Z,9.30
2019-04-23T14:56:29.445Z,16.03
2019-04-23T14:59:11.003Z,11.93
2019-04-23T15:02:18.400Z,9.83
2019-04-23T15:04:57.582Z,10.73
2019-04-23T15:07:46.658Z,11.37
2019-04-23T15:10:41.099Z,10.77
2019-04-23T15:13:22.963Z,13.27
2019-04-23T15:22:04.776Z,12.73
2019-04-23T15:25:14.014Z,10.50
2019-04-23T15:28:03.408Z,10.17
2019-04-23T15:30:07.002Z,9.23
2019-04-23T15:33:27.220Z,10.90
2019-04-23T15:36:12.933Z,11.30
2019-04-23T15:38:53.432Z,11.03
2019-04-23T15:47:10.203Z,11.37
2019-04-23T15:49:59.492Z,12.30
2019-04-23T15:52:51.447Z,11.00
2019-04-23T15:55:33.887Z,12.10
2019-04-23T15:58:26.315Z,10.97
2019-04-23T16:03:39.877Z,11.77
2019-04-23T16:06:30.161Z,16.80
2019-04-23T16:09:46.175Z,15.90
2019-04-23T16:12:31.577Z,10.83
2019-04-23T16:15:37.330Z,11.07
2019-04-23T16:18:33.414Z,22.37
2019-04-23T16:21:10.207Z,10.60
2019-04-23T16:24:00.822Z,13.33
2019-04-23T16:26:50.365Z,10.60
2019-04-23T16:29:48.872Z,11.00
2019-04-23T16:32:28.394Z,10.23
2019-04-23T16:35:18.216Z,11.30
2019-04-23T16:41:15.498Z,11.67
2019-04-23T16:44:14.278Z,14.50
2019-04-23T16:46:56.288Z,14.50
2019-04-23T16:49:51.063Z,11.97
2019-04-23T16:55:27.056Z,12.17
2019-04-23T16:58:21.486Z,13.73
2019-04-23T17:01:03.658Z,13.63
2019-04-23T17:03:49.796Z,13.50
2019-04-23T17:06:29.356Z,11.80
2019-04-23T17:09:34.131Z,13.77
2019-04-23T17:12:10.406Z,15.83
2019-04-23T17:15:03.082Z,13.90
2019-04-23T17:17:45.152Z,12.67
2019-04-23T17:20:39.825Z,14.20
2019-04-23T17:26:13.486Z,15.47
2019-04-23T17:31:45.368Z,16.67
2019-04-23T17:34:47.223Z,14.37
2019-04-23T17:37:33.195Z,12.07
2019-04-23T17:40:46.689Z,14.63
2019-04-23T17:43:33.289Z,13.97
2019-04-23T17:46:24.782Z,13.23
2019-04-23T17:49:13.135Z,18.37
2019-04-23T17:51:56.057Z,14.13
2019-04-23T17:54:51.780Z,14.23
2019-04-23T18:00:25.499Z,15.40
2019-04-23T18:03:11.134Z,18.33
2019-04-23T18:08:53.992Z,15.23
2019-04-23T18:11:31.327Z,14.27
2019-04-23T18:14:30.963Z,16.60
2019-04-23T18:17:13.038Z,15.13
2019-04-23T18:20:34.824Z,14.67
2019-04-23T18:23:09.610Z,16.90
2019-04-23T18:25:54.606Z,16.77
2019-04-23T18:28:49.907Z,14.57
2019-04-23T18:31:36.699Z,16.10
2019-04-23T18:34:43.890Z,14.23
2019-04-23T18:37:28.081Z,16.07
2019-04-23T18:40:05.178Z,15.47
2019-04-23T18:43:08.771Z,14.67
2019-04-23T18:48:45.065Z,18.13
2019-04-23T18:51:21.410Z,17.53
2019-04-23T18:54:15.213Z,17.83
2019-04-23T18:59:57.124Z,14.67
2019-04-23T19:06:14.992Z,16.63
2019-04-23T19:12:30.162Z,15.40
2019-04-23T19:15:23.514Z,15.00
2019-04-23T19:18:18.939Z,15.20
2019-04-23T19:29:52.027Z,15.77
2019-04-23T19:32:46.710Z,15.90
2019-04-23T19:35:51.959Z,21.87
2019-04-23T19:38:21.372Z,16.13
2019-04-23T19:41:03.819Z,18.73
2019-04-23T19:43:55.942Z,17.77
2019-04-23T19:49:32.672Z,15.90
2019-04-23T19:52:20.350Z,16.33
2019-04-23T19:55:08.535Z,18.47
2019-04-23T19:58:04.985Z,18.17
2019-04-23T20:06:53.985Z,18.67
2019-04-23T20:12:05.993Z,17.57
2019-04-23T20:14:58.240Z,18.87
2019-04-23T20:17:42.624Z,19.30
2019-04-23T20:20:42.692Z,20.77
2019-04-23T20:23:52.572Z,18.43
2019-04-23T20:26:17.153Z,16.90
2019-04-23T20:33:38.530Z,18.00
2019-04-23T20:35:26.986Z,18.50
2019-04-23T20:41:11.878Z,22.63
2019-04-23T20:44:01.714Z,18.23
2019-04-23T20:46:52.368Z,17.97
2019-04-23T20:55:06.754Z,18.37
2019-04-23T20:58:20.884Z,20.13
2019-04-23T21:01:23.819Z,19.73
2019-04-23T21:04:11.689Z,19.27
2019-04-23T21:06:56.493Z,19.53
2019-04-23T21:10:01.188Z,22.20
2019-04-23T21:12:51.006Z,18.10
2019-04-23T21:18:17.245Z,18.93
2019-04-23T21:23:51.092Z,23.47
2019-04-23T21:26:37.219Z,19.43
2019-04-23T21:29:33.867Z,18.63
2019-04-23T21:32:14.869Z,19.53
2019-04-23T21:35:16.826Z,22.80
2019-04-23T21:37:54.002Z,18.43
2019-04-23T21:44:05.503Z,19.17
2019-04-23T21:52:07.968Z,22.70
2019-04-23T21:57:53.601Z,17.77
2019-04-23T22:00:41.207Z,19.37
2019-04-23T22:08:59.157Z,18.90
2019-04-23T22:11:56.946Z,21.57
2019-04-23T22:14:33.352Z,18.97
2019-04-23T22:20:26.039Z,19.70
2019-04-23T22:23:05.414Z,17.93
2019-04-23T22:25:56.431Z,19.60
2019-04-23T22:28:43.436Z,19.27
2019-04-23T22:31:31.448Z,18.83
2019-04-23T22:37:09.844Z,17.60
2019-04-23T22:45:27.058Z,20.47
2019-04-23T22:48:17.949Z,19.43
2019-04-23T22:53:50.839Z,21.23
2019-04-23T22:56:44.011Z,18.23
2019-04-23T22:59:51.809Z,20.23
2019-04-23T23:02:44.636Z,19.00
2019-04-23T23:05:29.412Z,19.37
2019-04-23T23:08:10.901Z,21.53
2019-04-23T23:14:09.575Z,19.67
2019-04-23T23:16:27.839Z,19.03
2019-04-23T23:19:28.515Z,24.50
2019-04-23T23:25:05.783Z,23.50
2019-04-23T23:27:52.137Z,18.17
2019-04-23T23:30:38.850Z,20.43
2019-04-23T23:33:24.772Z,18.63
2019-04-23T23:36:18.025Z,17.63
2019-04-23T23:42:03.010Z,20.67
2019-04-23T23:47:19.642Z,18.50
2019-04-23T23:53:04.279Z,17.40
2019-04-23T23:56:00.550Z,17.43
2019-04-23T23:58:53.970Z,16.93
